createdAt,value
2023-04-28T00:01:11.946Z,6.50
2023-04-28T00:03:39.117Z,6.50
2023-04-28T00:06:07.626Z,6.40
2023-04-28T00:08:34.610Z,6.40
2023-04-28T00:11:02.484Z,6.40
2023-04-28T00:13:31.878Z,6.30
2023-04-28T00:16:00.935Z,6.40
2023-04-28T00:18:31.412Z,6.40
2023-04-28T00:21:08.489Z,6.30
2023-04-28T00:23:38.894Z,6.20
2023-04-28T00:26:06.710Z,6.30
2023-04-28T00:28:34.735Z,6.20
2023-04-28T00:31:02.310Z,6.20
2023-04-28T00:33:29.047Z,6.10
2023-04-28T00:36:01.797Z,6.10
2023-04-28T00:38:28.848Z,6.10
2023-04-28T00:40:55.981Z,6.00
2023-04-28T00:43:22.701Z,6.10
2023-04-28T00:45:50.566Z,6.10
2023-04-28T00:48:17.576Z,6.00
2023-04-28T00:50:45.165Z,6.00
2023-04-28T00:53:13.029Z,6.00
2023-04-28T00:55:40.250Z,6.00
2023-04-28T00:58:07.500Z,6.00
2023-04-28T01:00:34.806Z,6.00
2023-04-28T01:03:01.973Z,6.00
2023-04-28T01:05:29.724Z,5.90
2023-04-28T01:07:56.448Z,5.90
2023-04-28T01:10:23.272Z,5.90
2023-04-28T01:12:51.207Z,5.90
2023-04-28T01:15:19.775Z,5.90
2023-04-28T01:17:53.297Z,5.90
2023-04-28T01:20:21.204Z,5.90
2023-04-28T01:22:47.885Z,5.90
2023-04-28T01:25:14.757Z,5.90
2023-04-28T01:27:41.426Z,5.90
2023-04-28T01:30:08.773Z,5.90
2023-04-28T01:32:35.501Z,5.90
2023-04-28T01:35:02.230Z,5.90
2023-04-28T01:37:28.870Z,5.90
2023-04-28T01:39:55.539Z,5.90
2023-04-28T01:42:22.150Z,5.80
2023-04-28T01:44:50.105Z,5.80
2023-04-28T01:47:20.026Z,5.80
2023-04-28T01:49:47.329Z,5.80
2023-04-28T01:52:15.173Z,5.80
2023-04-28T01:54:41.851Z,5.70
2023-04-28T01:57:09.799Z,5.70
2023-04-28T01:59:36.687Z,5.70
2023-04-28T02:02:04.772Z,5.60
2023-04-28T02:04:31.513Z,5.60
2023-04-28T02:07:01.771Z,5.60
2023-04-28T02:09:31.478Z,5.60
2023-04-28T02:11:58.322Z,5.60
2023-04-28T02:14:25.367Z,5.60
2023-04-28T02:16:52.120Z,5.70
2023-04-28T02:19:18.805Z,5.60
2023-04-28T02:21:45.519Z,5.60
2023-04-28T02:24:12.192Z,5.60
2023-04-28T02:26:38.828Z,5.50
2023-04-28T02:29:05.500Z,5.50
2023-04-28T02:31:32.283Z,5.60
2023-04-28T02:34:00.143Z,5.50
2023-04-28T02:36:29.778Z,5.50
2023-04-28T02:38:59.868Z,5.40
2023-04-28T02:41:28.101Z,5.40
2023-04-28T02:43:54.760Z,5.40
2023-04-28T02:46:21.496Z,5.40
2023-04-28T02:48:48.246Z,5.40
2023-04-28T02:51:14.904Z,5.40
2023-04-28T02:53:41.591Z,5.40
2023-04-28T02:56:08.305Z,5.40
2023-04-28T02:58:35.003Z,5.40
2023-04-28T03:01:01.806Z,5.30
2023-04-28T03:03:28.790Z,5.40
2023-04-28T03:05:55.556Z,5.30
2023-04-28T03:08:22.597Z,5.40
2023-04-28T03:10:49.558Z,5.40
2023-04-28T03:13:17.241Z,5.40
2023-04-28T03:15:45.257Z,5.40
2023-04-28T03:18:11.995Z,5.40
2023-04-28T03:20:39.657Z,5.40
2023-04-28T03:23:08.400Z,5.30
2023-04-28T03:25:35.020Z,5.40
2023-04-28T03:28:01.924Z,5.30
2023-04-28T03:30:28.642Z,5.30
2023-04-28T03:32:55.370Z,5.30
2023-04-28T03:35:22.100Z,5.30
2023-04-28T03:37:49.113Z,5.30
2023-04-28T03:40:15.998Z,5.40
2023-04-28T03:42:43.995Z,5.40
2023-04-28T03:45:11.078Z,5.40
2023-04-28T03:47:38.904Z,5.40
2023-04-28T03:50:06.120Z,5.40
2023-04-28T03:52:34.543Z,5.40
2023-04-28T03:55:01.225Z,5.40
2023-04-28T03:57:27.921Z,5.50
2023-04-28T03:59:54.649Z,5.50
2023-04-28T04:02:21.429Z,5.50
2023-04-28T04:04:48.290Z,5.50
2023-04-28T04:07:15.086Z,5.50
2023-04-28T04:09:41.800Z,5.50
2023-04-28T04:12:08.460Z,5.50
2023-04-28T04:14:35.179Z,5.60
2023-04-28T04:17:01.896Z,5.60
2023-04-28T04:19:28.577Z,5.70
2023-04-28T04:21:57.344Z,5.70
2023-04-28T04:24:25.133Z,5.70
2023-04-28T04:26:53.025Z,5.70
2023-04-28T04:29:19.723Z,5.70
2023-04-28T04:31:46.472Z,5.80
2023-04-28T04:34:13.434Z,5.80
2023-04-28T04:36:40.204Z,5.80
2023-04-28T04:39:08.088Z,5.80
2023-04-28T04:41:34.792Z,5.90
2023-04-28T04:44:01.516Z,5.90
2023-04-28T04:46:28.288Z,5.80
2023-04-28T04:48:55.006Z,5.80
2023-04-28T04:51:21.745Z,5.80
2023-04-28T04:53:48.452Z,5.80
2023-04-28T04:56:16.767Z,5.90
2023-04-28T04:58:46.102Z,5.90
2023-04-28T05:01:12.760Z,5.90
2023-04-28T05:03:39.517Z,5.90
2023-04-28T05:06:06.413Z,5.90
2023-04-28T05:08:33.091Z,6.00
2023-04-28T05:10:59.751Z,6.00
2023-04-28T05:13:26.447Z,6.00
2023-04-28T05:15:53.077Z,6.00
2023-04-28T05:18:19.781Z,6.00
2023-04-28T05:20:47.653Z,6.00
2023-04-28T05:23:14.434Z,6.10
2023-04-28T05:25:41.208Z,6.10
2023-04-28T05:28:12.213Z,6.10
2023-04-28T05:30:40.029Z,6.20
2023-04-28T05:33:07.938Z,6.20
2023-04-28T05:35:35.942Z,6.20
2023-04-28T05:38:11.942Z,6.30
2023-04-28T05:40:42.241Z,6.30
2023-04-28T05:43:10.111Z,6.40
2023-04-28T05:45:36.854Z,6.40
2023-04-28T05:48:03.767Z,6.50
2023-04-28T05:50:30.454Z,6.50
2023-04-28T05:52:57.165Z,6.50
2023-04-28T05:55:23.907Z,6.60
2023-04-28T05:57:53.454Z,6.60
2023-04-28T06:00:20.848Z,6.70
2023-04-28T06:02:47.771Z,6.70
2023-04-28T06:05:14.866Z,6.80
2023-04-28T06:07:41.678Z,6.80
2023-04-28T06:10:09.020Z,6.90
2023-04-28T06:12:35.820Z,6.90
2023-04-28T06:15:02.650Z,6.90
2023-04-28T06:17:29.359Z,7.00
2023-04-28T06:19:56.074Z,7.00
2023-04-28T06:22:23.998Z,7.10
2023-04-28T06:24:50.706Z,7.20
2023-04-28T06:27:20.546Z,7.30
2023-04-28T06:29:50.633Z,7.40
2023-04-28T06:32:23.131Z,7.40
2023-04-28T06:34:51.339Z,7.50
2023-04-28T06:37:19.316Z,7.60
2023-04-28T06:39:47.250Z,7.60
2023-04-28T06:42:14.824Z,7.80
2023-04-28T06:44:44.154Z,7.80
2023-04-28T06:47:11.080Z,7.90
2023-04-28T06:49:37.897Z,8.00
2023-04-28T06:52:04.664Z,8.10
2023-04-28T06:54:31.391Z,8.20
2023-04-28T06:56:58.138Z,8.30
2023-04-28T06:59:24.873Z,8.40
2023-04-28T07:01:51.615Z,8.50
2023-04-28T07:04:19.177Z,8.50
2023-04-28T07:06:47.945Z,8.60
2023-04-28T07:09:14.794Z,8.60
2023-04-28T07:11:43.804Z,8.70
2023-04-28T07:14:11.968Z,8.70
2023-04-28T07:16:39.276Z,8.80
2023-04-28T07:19:18.681Z,8.80
2023-04-28T07:21:46.941Z,8.90
2023-04-28T07:24:17.428Z,8.90
2023-04-28T07:26:46.199Z,9.00
2023-04-28T07:29:15.581Z,9.00
2023-04-28T07:31:42.280Z,9.00
2023-04-28T07:34:09.103Z,9.10
2023-04-28T07:36:35.861Z,9.10
2023-04-28T07:39:02.745Z,9.20
2023-04-28T07:42:03.061Z,9.30
2023-04-28T07:44:32.283Z,9.40
2023-04-28T07:47:11.890Z,9.40
2023-04-28T07:49:39.845Z,9.50
2023-04-28T07:52:10.770Z,9.50
2023-04-28T07:54:37.700Z,9.60
2023-04-28T07:57:04.482Z,9.60
2023-04-28T07:59:31.375Z,9.70
2023-04-28T08:01:58.076Z,9.80
2023-04-28T08:04:25.390Z,9.80
2023-04-28T08:06:55.042Z,9.90
2023-04-28T08:09:21.853Z,9.90
2023-04-28T08:11:48.596Z,10.00
2023-04-28T08:14:16.953Z,10.00
2023-04-28T08:16:45.467Z,10.10
2023-04-28T08:19:13.238Z,10.10
2023-04-28T08:21:41.109Z,10.20
2023-04-28T08:24:07.777Z,10.30
2023-04-28T08:26:40.119Z,10.30
2023-04-28T08:29:09.943Z,10.40
2023-04-28T08:31:39.592Z,10.40
2023-04-28T08:34:09.823Z,10.50
2023-04-28T08:36:39.488Z,10.50
2023-04-28T08:39:06.182Z,10.60
2023-04-28T08:41:33.088Z,10.70
2023-04-28T08:43:59.916Z,10.80
2023-04-28T08:46:28.794Z,10.90
2023-04-28T08:49:00.697Z,11.00
2023-04-28T08:51:35.335Z,11.10
2023-04-28T08:54:22.824Z,11.20
2023-04-28T08:56:53.407Z,11.30
2023-04-28T08:59:24.522Z,11.40
2023-04-28T09:01:53.919Z,11.50
2023-04-28T09:04:23.213Z,11.50
2023-04-28T09:06:50.426Z,11.60
2023-04-28T09:09:20.044Z,11.70
2023-04-28T09:11:55.699Z,11.80
2023-04-28T09:14:23.440Z,11.80
2023-04-28T09:16:50.803Z,11.90
2023-04-28T09:19:17.722Z,12.00
2023-04-28T09:21:54.396Z,12.10
2023-04-28T09:24:35.726Z,12.20
2023-04-28T09:27:04.761Z,12.10
2023-04-28T09:29:32.103Z,12.20
2023-04-28T09:32:15.156Z,12.20
2023-04-28T09:34:50.194Z,12.40
2023-04-28T09:37:22.546Z,12.40
2023-04-28T09:39:54.241Z,12.50
2023-04-28T09:42:44.543Z,12.60
2023-04-28T09:45:18.231Z,12.70
2023-04-28T09:47:46.981Z,12.80
2023-04-28T09:50:16.915Z,12.90
2023-04-28T09:52:46.051Z,13.00
2023-04-28T09:55:13.200Z,13.10
2023-04-28T09:57:40.351Z,13.20
2023-04-28T10:00:08.140Z,13.20
2023-04-28T10:05:08.201Z,13.40
2023-04-28T10:07:38.459Z,13.50
2023-04-28T10:10:06.950Z,13.70
2023-04-28T10:12:33.724Z,13.80
2023-04-28T10:15:00.872Z,13.90
2023-04-28T10:17:27.771Z,14.00
2023-04-28T10:19:55.080Z,14.00
2023-04-28T10:23:05.474Z,14.10
2023-04-28T10:25:34.826Z,14.10
2023-04-28T10:28:06.167Z,14.20
2023-04-28T10:30:32.938Z,14.30
2023-04-28T10:33:09.001Z,14.40
2023-04-28T10:35:35.702Z,14.40
2023-04-28T10:38:06.949Z,14.40
2023-04-28T10:40:43.359Z,14.40
2023-04-28T10:43:12.007Z,14.50
2023-04-28T10:45:56.812Z,14.50
2023-04-28T10:48:50.353Z,14.60
2023-04-28T10:51:21.600Z,14.70
2023-04-28T10:53:48.224Z,14.70
2023-04-28T10:56:28.934Z,14.80
2023-04-28T10:59:01.681Z,14.90
2023-04-28T11:01:32.525Z,15.00
2023-04-28T11:04:10.400Z,15.10
2023-04-28T11:06:43.336Z,15.30
2023-04-28T11:09:12.889Z,15.40
2023-04-28T11:11:58.271Z,15.50
2023-04-28T11:14:33.658Z,15.60
2023-04-28T11:17:08.270Z,15.70
2023-04-28T11:19:37.080Z,15.80
2023-04-28T11:22:18.974Z,15.90
2023-04-28T11:25:02.430Z,16.10
2023-04-28T11:27:30.853Z,16.30
2023-04-28T11:29:57.616Z,16.40
2023-04-28T11:32:35.172Z,16.60
2023-04-28T11:35:02.201Z,16.60
2023-04-28T11:37:28.938Z,16.70
2023-04-28T11:39:55.657Z,16.90
2023-04-28T11:42:22.447Z,16.90
2023-04-28T11:44:53.544Z,16.90
2023-04-28T11:47:31.109Z,17.00
2023-04-28T11:49:57.796Z,17.10
2023-04-28T11:52:24.527Z,17.20
2023-04-28T11:54:55.568Z,17.20
2023-04-28T11:57:22.525Z,17.30
2023-04-28T11:59:51.195Z,17.30
2023-04-28T12:02:25.999Z,17.20
2023-04-28T12:04:52.817Z,17.20
2023-04-28T12:07:19.965Z,17.30
2023-04-28T12:10:10.533Z,17.30
2023-04-28T12:15:08.680Z,17.30
2023-04-28T12:17:39.525Z,17.30
2023-04-28T12:20:09.601Z,17.40
2023-04-28T12:22:50.867Z,17.60
2023-04-28T12:25:19.429Z,17.80
2023-04-28T12:28:05.996Z,17.90
2023-04-28T12:30:37.151Z,18.10
2023-04-28T12:33:04.073Z,18.20
2023-04-28T12:35:30.830Z,18.40
2023-04-28T12:37:57.967Z,18.50
2023-04-28T12:40:24.958Z,18.70
2023-04-28T12:42:52.847Z,18.70
2023-04-28T12:45:22.526Z,18.70
2023-04-28T12:47:50.774Z,18.50
2023-04-28T12:50:17.868Z,18.50
2023-04-28T12:52:44.512Z,18.40
2023-04-28T12:55:11.270Z,18.40
2023-04-28T12:57:39.507Z,18.40
2023-04-28T13:00:07.853Z,18.40
2023-04-28T13:02:35.680Z,18.30
2023-04-28T13:05:03.171Z,18.20
2023-04-28T13:07:30.294Z,18.10
2023-04-28T13:09:57.350Z,18.00
2023-04-28T13:12:24.073Z,18.10
2023-04-28T13:14:50.778Z,18.10
2023-04-28T13:17:18.640Z,17.90
2023-04-28T13:19:46.394Z,17.90
2023-04-28T13:22:16.229Z,17.70
2023-04-28T13:24:55.334Z,17.70
2023-04-28T13:27:23.586Z,17.60
2023-04-28T13:29:53.070Z,17.50
2023-04-28T13:32:20.168Z,17.50
2023-04-28T13:34:47.149Z,17.40
2023-04-28T13:37:14.082Z,17.50
2023-04-28T13:39:40.781Z,17.50
2023-04-28T13:42:07.479Z,17.60
2023-04-28T13:44:34.249Z,17.60
2023-04-28T13:47:00.983Z,17.50
2023-04-28T13:49:27.668Z,17.30
2023-04-28T13:51:54.465Z,17.20
2023-04-28T13:54:21.289Z,17.00
2023-04-28T13:56:48.048Z,17.00
2023-04-28T13:59:14.742Z,17.00
2023-04-28T14:01:41.471Z,16.90
2023-04-28T14:04:08.335Z,16.80
2023-04-28T14:06:35.246Z,16.70
2023-04-28T14:09:01.977Z,16.60
2023-04-28T14:11:28.686Z,16.60
2023-04-28T14:13:58.203Z,16.50
2023-04-28T14:16:24.982Z,16.40
2023-04-28T14:18:51.886Z,16.40
2023-04-28T14:21:19.652Z,16.30
2023-04-28T14:23:46.344Z,16.10
2023-04-28T14:26:13.333Z,16.10
2023-04-28T14:28:41.163Z,16.10
2023-04-28T14:31:07.893Z,16.00
2023-04-28T14:33:36.525Z,15.90
2023-04-28T14:36:03.454Z,15.80
2023-04-28T14:38:30.236Z,15.70
2023-04-28T14:40:57.158Z,15.70
2023-04-28T14:43:24.062Z,15.60
2023-04-28T14:45:50.974Z,15.50
2023-04-28T14:48:17.844Z,15.50
2023-04-28T14:50:44.586Z,15.40
2023-04-28T14:53:11.264Z,15.40
2023-04-28T14:55:37.995Z,15.40
2023-04-28T14:58:04.666Z,15.30
2023-04-28T15:00:31.461Z,15.20
2023-04-28T15:02:58.365Z,15.20
2023-04-28T15:05:26.283Z,15.20
2023-04-28T15:07:52.992Z,15.20
2023-04-28T15:10:30.021Z,15.20
2023-04-28T15:12:58.159Z,15.20
2023-04-28T15:15:28.921Z,15.20
2023-04-28T15:17:55.692Z,15.20
2023-04-28T15:20:22.446Z,15.30
2023-04-28T15:22:49.227Z,15.30
2023-04-28T15:25:16.000Z,15.30
2023-04-28T15:27:42.763Z,15.40
2023-04-28T15:30:10.100Z,15.40
2023-04-28T15:32:37.162Z,15.40
2023-04-28T15:35:06.926Z,15.40
2023-04-28T15:37:47.056Z,15.30
2023-04-28T15:40:18.836Z,15.40
2023-04-28T15:42:47.332Z,15.40
2023-04-28T15:45:14.195Z,15.40
2023-04-28T15:47:44.298Z,15.30
2023-04-28T15:50:13.138Z,15.30
2023-04-28T15:52:43.904Z,15.30
2023-04-28T15:55:19.701Z,15.30
2023-04-28T15:57:48.703Z,15.20
2023-04-28T16:00:16.747Z,15.20
2023-04-28T16:02:44.474Z,15.10
2023-04-28T16:05:13.725Z,15.20
2023-04-28T16:07:40.594Z,15.20
2023-04-28T16:10:09.507Z,15.10
2023-04-28T16:12:36.624Z,15.10
2023-04-28T16:15:03.532Z,15.10
2023-04-28T16:17:30.389Z,15.00
2023-04-28T16:19:57.433Z,14.90
2023-04-28T16:22:25.887Z,14.70
2023-04-28T16:24:52.577Z,14.60
2023-04-28T16:27:19.271Z,14.50
2023-04-28T16:29:46.058Z,14.50
2023-04-28T16:32:13.154Z,14.40
2023-04-28T16:34:42.274Z,14.30
2023-04-28T16:37:09.006Z,14.40
2023-04-28T16:39:35.717Z,14.40
2023-04-28T16:42:02.440Z,14.30
2023-04-28T16:44:29.500Z,14.30
2023-04-28T16:46:56.846Z,14.40
2023-04-28T16:49:23.617Z,14.30
2023-04-28T16:52:04.151Z,14.30
2023-04-28T16:54:31.972Z,14.20
2023-04-28T16:57:00.132Z,14.20
2023-04-28T16:59:27.018Z,14.20
2023-04-28T17:01:58.777Z,14.10
2023-04-28T17:04:26.415Z,14.10
2023-04-28T17:06:54.016Z,14.10
2023-04-28T17:09:21.593Z,14.10
2023-04-28T17:11:49.595Z,14.10
2023-04-28T17:14:16.334Z,14.10
2023-04-28T17:16:43.266Z,14.10
2023-04-28T17:19:11.159Z,14.10
2023-04-28T17:21:38.499Z,14.10
2023-04-28T17:24:05.464Z,14.10
2023-04-28T17:26:32.157Z,14.00
2023-04-28T17:29:00.330Z,14.10
2023-04-28T17:31:29.085Z,14.00
2023-04-28T17:34:07.052Z,14.00
2023-04-28T17:36:34.825Z,14.10
2023-04-28T17:39:03.202Z,14.00
2023-04-28T17:41:29.934Z,13.90
2023-04-28T17:43:56.613Z,13.90
2023-04-28T17:46:23.355Z,13.80
2023-04-28T17:48:50.078Z,13.80
2023-04-28T17:51:16.814Z,13.70
2023-04-28T17:53:43.509Z,13.60
2023-04-28T17:56:10.200Z,13.60
2023-04-28T17:58:36.985Z,13.50
2023-04-28T18:01:05.476Z,13.40
2023-04-28T18:03:34.791Z,13.40
2023-04-28T18:06:01.606Z,13.30
2023-04-28T18:08:28.254Z,13.30
2023-04-28T18:10:54.954Z,13.20
2023-04-28T18:13:21.672Z,13.10
2023-04-28T18:15:49.865Z,13.10
2023-04-28T18:18:18.356Z,13.10
2023-04-28T18:20:45.468Z,13.10
2023-04-28T18:23:13.316Z,13.00
2023-04-28T18:25:40.286Z,13.10
2023-04-28T18:28:10.683Z,13.10
2023-04-28T18:30:46.678Z,13.10
2023-04-28T18:33:14.455Z,13.00
2023-04-28T18:35:41.625Z,13.00
2023-04-28T18:38:11.847Z,13.00
2023-04-28T18:40:43.432Z,13.00
2023-04-28T18:43:19.414Z,13.00
2023-04-28T18:45:50.388Z,12.90
2023-04-28T18:48:19.675Z,12.90
2023-04-28T18:50:46.958Z,12.90
2023-04-28T18:53:26.116Z,12.90
2023-04-28T18:55:57.331Z,12.90
2023-04-28T18:58:24.717Z,12.90
2023-04-28T19:00:52.846Z,12.90
2023-04-28T19:03:20.415Z,12.90
2023-04-28T19:05:47.816Z,12.90
2023-04-28T19:08:14.575Z,12.90
2023-04-28T19:10:41.279Z,12.80
2023-04-28T19:13:08.249Z,12.80
2023-04-28T19:15:34.968Z,12.80
2023-04-28T19:18:01.951Z,12.70
2023-04-28T19:20:29.085Z,12.70
2023-04-28T19:22:55.874Z,12.70
2023-04-28T19:25:22.559Z,12.70
2023-04-28T19:27:49.295Z,12.70
2023-04-28T19:30:16.033Z,12.70
2023-04-28T19:32:42.818Z,12.70
2023-04-28T19:35:09.822Z,12.70
2023-04-28T19:37:36.786Z,12.70
2023-04-28T19:40:04.070Z,12.70
2023-04-28T19:42:31.020Z,12.60
2023-04-28T19:44:58.551Z,12.60
2023-04-28T19:47:26.563Z,12.60
2023-04-28T19:49:53.838Z,12.60
2023-04-28T19:52:22.150Z,12.60
2023-04-28T19:54:50.692Z,12.50
2023-04-28T19:57:18.547Z,12.60
2023-04-28T19:59:49.952Z,12.60
2023-04-28T20:02:21.617Z,12.60
2023-04-28T20:04:52.075Z,12.50
2023-04-28T20:07:21.025Z,12.50
2023-04-28T20:09:47.697Z,12.50
2023-04-28T20:12:15.264Z,12.50
2023-04-28T20:14:41.987Z,12.50
2023-04-28T20:17:09.172Z,12.50
2023-04-28T20:19:35.951Z,12.50
2023-04-28T20:22:04.879Z,12.40
2023-04-28T20:24:33.483Z,12.40
2023-04-28T20:27:00.817Z,12.40
2023-04-28T20:29:27.926Z,12.40
2023-04-28T20:31:54.593Z,12.40
2023-04-28T20:34:21.282Z,12.40
2023-04-28T20:36:47.956Z,12.40
2023-04-28T20:39:14.640Z,12.40
2023-04-28T20:41:41.330Z,12.30
2023-04-28T20:44:08.308Z,12.30
2023-04-28T20:46:35.248Z,12.30
2023-04-28T20:49:03.341Z,12.30
2023-04-28T20:51:30.259Z,12.30
2023-04-28T20:53:56.962Z,12.20
2023-04-28T20:56:23.967Z,12.20
2023-04-28T20:58:50.639Z,12.20
2023-04-28T21:01:17.354Z,12.20
2023-04-28T21:03:45.404Z,12.20
2023-04-28T21:06:12.210Z,12.20
2023-04-28T21:08:42.184Z,12.30
2023-04-28T21:11:19.928Z,12.30
2023-04-28T21:13:50.292Z,12.30
2023-04-28T21:16:21.168Z,12.30
2023-04-28T21:18:52.577Z,12.30
2023-04-28T21:21:23.176Z,12.30
2023-04-28T21:23:52.186Z,12.20
2023-04-28T21:26:19.243Z,12.20
2023-04-28T21:28:46.186Z,12.20
2023-04-28T21:31:12.980Z,12.20
2023-04-28T21:33:39.761Z,12.20
2023-04-28T21:36:07.289Z,12.20
2023-04-28T21:38:34.451Z,12.10
2023-04-28T21:41:01.148Z,12.10
2023-04-28T21:43:27.916Z,12.10
2023-04-28T21:45:54.732Z,12.10
2023-04-28T21:48:21.499Z,12.10
2023-04-28T21:50:48.217Z,12.10
2023-04-28T21:53:15.026Z,12.00
2023-04-28T21:55:44.308Z,12.00
2023-04-28T21:58:13.366Z,12.00
2023-04-28T22:00:46.660Z,12.00
2023-04-28T22:03:18.018Z,12.00
2023-04-28T22:05:54.047Z,12.00
2023-04-28T22:08:20.812Z,12.00
2023-04-28T22:10:47.484Z,12.00
2023-04-28T22:13:14.418Z,12.10
2023-04-28T22:15:41.130Z,12.10
2023-04-28T22:18:07.893Z,12.10
2023-04-28T22:20:34.703Z,12.10
2023-04-28T22:23:01.599Z,12.10
2023-04-28T22:25:28.333Z,12.10
2023-04-28T22:27:55.073Z,12.10
2023-04-28T22:30:23.669Z,12.10
2023-04-28T22:32:51.789Z,12.10
2023-04-28T22:35:19.909Z,12.10
2023-04-28T22:37:46.644Z,12.10
2023-04-28T22:40:14.483Z,12.10
2023-04-28T22:42:42.170Z,12.00
2023-04-28T22:45:11.060Z,12.00
2023-04-28T22:47:40.061Z,12.00
2023-04-28T22:50:09.764Z,11.90
2023-04-28T22:52:38.716Z,12.00
2023-04-28T22:55:14.624Z,12.00
2023-04-28T22:57:42.928Z,11.90
2023-04-28T23:00:12.174Z,12.00
2023-04-28T23:02:39.033Z,12.00
2023-04-28T23:05:06.176Z,11.90
2023-04-28T23:07:32.839Z,11.90
2023-04-28T23:09:59.525Z,11.90
2023-04-28T23:12:26.275Z,11.90
2023-04-28T23:14:52.958Z,11.90
2023-04-28T23:17:19.670Z,11.90
2023-04-28T23:19:46.361Z,11.90
2023-04-28T23:22:13.165Z,11.90
2023-04-28T23:24:39.839Z,11.90
2023-04-28T23:27:06.625Z,11.90
2023-04-28T23:29:33.480Z,11.90
2023-04-28T23:32:01.269Z,11.90
2023-04-28T23:34:32.218Z,11.90
2023-04-28T23:37:03.444Z,11.90
2023-04-28T23:39:31.663Z,11.90
2023-04-28T23:42:00.662Z,11.90
2023-04-28T23:44:27.338Z,11.90
2023-04-28T23:46:56.005Z,11.90
2023-04-28T23:49:22.902Z,11.80
2023-04-28T23:51:49.652Z,11.80
2023-04-28T23:54:16.353Z,11.90
2023-04-28T23:56:43.107Z,11.90
2023-04-28T23:59:09.835Z,11.80
